sensor_id;sensor_type;location;lat;lon;timestamp;temperature;humidity
6627;DHT22;3349;49.830;8.748;2023-03-12T00:01:58;-1.70;89.70
6627;DHT22;3349;49.830;8.748;2023-03-12T00:04:25;-1.70;89.80
6627;DHT22;3349;49.830;8.748;2023-03-12T00:06:51;-1.60;90.30
6627;DHT22;3349;49.830;8.748;2023-03-12T00:09:18;-1.60;90.20
6627;DHT22;3349;49.830;8.748;2023-03-12T00:11:45;-1.60;90.00
6627;DHT22;3349;49.830;8.748;2023-03-12T00:14:12;-1.60;90.10
6627;DHT22;3349;49.830;8.748;2023-03-12T00:16:38;-1.50;90.30
6627;DHT22;3349;49.830;8.748;2023-03-12T00:19:06;-1.50;90.20
6627;DHT22;3349;49.830;8.748;2023-03-12T00:21:33;-1.40;90.20
6627;DHT22;3349;49.830;8.748;2023-03-12T00:24:00;-1.40;90.00
6627;DHT22;3349;49.830;8.748;2023-03-12T00:26:27;-1.40;90.00
6627;DHT22;3349;49.830;8.748;2023-03-12T00:28:53;-1.40;89.80
6627;DHT22;3349;49.830;8.748;2023-03-12T00:31:22;-1.30;89.90
6627;DHT22;3349;49.830;8.748;2023-03-12T00:33:52;-1.40;89.40
6627;DHT22;3349;49.830;8.748;2023-03-12T00:36:22;-1.40;88.90
6627;DHT22;3349;49.830;8.748;2023-03-12T00:38:49;-1.30;90.00
6627;DHT22;3349;49.830;8.748;2023-03-12T00:41:16;-1.40;89.60
6627;DHT22;3349;49.830;8.748;2023-03-12T00:43:44;-1.40;89.30
6627;DHT22;3349;49.830;8.748;2023-03-12T00:46:11;-1.40;89.20
6627;DHT22;3349;49.830;8.748;2023-03-12T00:48:38;-1.50;88.90
6627;DHT22;3349;49.830;8.748;2023-03-12T00:51:05;-1.50;89.70
6627;DHT22;3349;49.830;8.748;2023-03-12T00:53:34;-1.50;90.00
6627;DHT22;3349;49.830;8.748;2023-03-12T00:56:01;-1.50;90.00
6627;DHT22;3349;49.830;8.748;2023-03-12T00:58:27;-1.50;90.00
6627;DHT22;3349;49.830;8.748;2023-03-12T01:00:55;-1.50;90.00
6627;DHT22;3349;49.830;8.748;2023-03-12T01:03:22;-1.50;90.20
6627;DHT22;3349;49.830;8.748;2023-03-12T01:05:49;-1.40;90.40
6627;DHT22;3349;49.830;8.748;2023-03-12T01:08:18;-1.40;90.40
6627;DHT22;3349;49.830;8.748;2023-03-12T01:10:46;-1.30;90.30
6627;DHT22;3349;49.830;8.748;2023-03-12T01:13:13;-1.30;90.20
6627;DHT22;3349;49.830;8.748;2023-03-12T01:15:39;-1.20;90.40
6627;DHT22;3349;49.830;8.748;2023-03-12T01:18:06;-1.10;90.10
6627;DHT22;3349;49.830;8.748;2023-03-12T01:20:33;-1.10;90.10
6627;DHT22;3349;49.830;8.748;2023-03-12T01:23:00;-1.00;89.90
6627;DHT22;3349;49.830;8.748;2023-03-12T01:25:27;-1.00;89.70
6627;DHT22;3349;49.830;8.748;2023-03-12T01:27:55;-0.90;89.30
6627;DHT22;3349;49.830;8.748;2023-03-12T01:30:22;-0.90;88.80
6627;DHT22;3349;49.830;8.748;2023-03-12T01:32:50;-0.90;88.40
6627;DHT22;3349;49.830;8.748;2023-03-12T01:35:17;-0.90;88.10
6627;DHT22;3349;49.830;8.748;2023-03-12T01:37:44;-0.90;88.30
6627;DHT22;3349;49.830;8.748;2023-03-12T01:40:14;-0.90;88.00
6627;DHT22;3349;49.830;8.748;2023-03-12T01:42:40;-0.90;87.60
6627;DHT22;3349;49.830;8.748;2023-03-12T01:48:09;-0.90;87.60
6627;DHT22;3349;49.830;8.748;2023-03-12T01:50:36;-0.90;87.50
6627;DHT22;3349;49.830;8.748;2023-03-12T01:53:03;-0.90;88.30
6627;DHT22;3349;49.830;8.748;2023-03-12T01:55:30;-1.00;87.60
6627;DHT22;3349;49.830;8.748;2023-03-12T01:57:57;-1.00;87.60
6627;DHT22;3349;49.830;8.748;2023-03-12T02:00:25;-1.00;87.30
6627;DHT22;3349;49.830;8.748;2023-03-12T02:02:54;-1.00;87.70
6627;DHT22;3349;49.830;8.748;2023-03-12T02:05:28;-1.00;88.40
6627;DHT22;3349;49.830;8.748;2023-03-12T02:07:57;-1.00;89.00
6627;DHT22;3349;49.830;8.748;2023-03-12T02:10:24;-1.00;88.90
6627;DHT22;3349;49.830;8.748;2023-03-12T02:12:52;-1.00;88.90
6627;DHT22;3349;49.830;8.748;2023-03-12T02:15:19;-1.00;89.00
6627;DHT22;3349;49.830;8.748;2023-03-12T02:17:46;-0.90;89.30
6627;DHT22;3349;49.830;8.748;2023-03-12T02:20:16;-0.90;89.30
6627;DHT22;3349;49.830;8.748;2023-03-12T02:22:48;-0.90;89.40
6627;DHT22;3349;49.830;8.748;2023-03-12T02:25:29;-0.80;89.80
6627;DHT22;3349;49.830;8.748;2023-03-12T02:28:02;-0.80;89.60
6627;DHT22;3349;49.830;8.748;2023-03-12T02:30:30;-0.80;89.60
6627;DHT22;3349;49.830;8.748;2023-03-12T02:32:58;-0.70;89.60
6627;DHT22;3349;49.830;8.748;2023-03-12T02:35:27;-0.80;89.10
6627;DHT22;3349;49.830;8.748;2023-03-12T02:37:55;-0.70;89.00
6627;DHT22;3349;49.830;8.748;2023-03-12T02:40:23;-0.70;88.80
6627;DHT22;3349;49.830;8.748;2023-03-12T02:42:54;-0.70;88.80
6627;DHT22;3349;49.830;8.748;2023-03-12T02:45:22;-0.70;88.80
6627;DHT22;3349;49.830;8.748;2023-03-12T02:47:50;-0.70;88.50
6627;DHT22;3349;49.830;8.748;2023-03-12T02:50:17;-0.70;88.60
6627;DHT22;3349;49.830;8.748;2023-03-12T02:52:43;-0.70;88.50
6627;DHT22;3349;49.830;8.748;2023-03-12T02:55:10;-0.70;88.40
6627;DHT22;3349;49.830;8.748;2023-03-12T02:57:37;-0.70;88.50
6627;DHT22;3349;49.830;8.748;2023-03-12T03:00:07;-0.60;89.00
6627;DHT22;3349;49.830;8.748;2023-03-12T03:02:36;-0.60;89.10
6627;DHT22;3349;49.830;8.748;2023-03-12T03:05:03;-0.60;89.20
6627;DHT22;3349;49.830;8.748;2023-03-12T03:07:30;-0.60;89.30
6627;DHT22;3349;49.830;8.748;2023-03-12T03:09:57;-0.60;89.40
6627;DHT22;3349;49.830;8.748;2023-03-12T03:12:28;-0.50;89.50
6627;DHT22;3349;49.830;8.748;2023-03-12T03:14:55;-0.50;89.50
6627;DHT22;3349;49.830;8.748;2023-03-12T03:17:23;-0.50;89.80
6627;DHT22;3349;49.830;8.748;2023-03-12T03:19:50;-0.50;90.00
6627;DHT22;3349;49.830;8.748;2023-03-12T03:22:18;-0.50;90.10
6627;DHT22;3349;49.830;8.748;2023-03-12T03:24:45;-0.40;90.40
6627;DHT22;3349;49.830;8.748;2023-03-12T03:27:12;-0.40;90.40
6627;DHT22;3349;49.830;8.748;2023-03-12T03:29:39;-0.30;90.40
6627;DHT22;3349;49.830;8.748;2023-03-12T03:32:06;-0.30;90.20
6627;DHT22;3349;49.830;8.748;2023-03-12T03:34:34;-0.30;89.90
6627;DHT22;3349;49.830;8.748;2023-03-12T03:37:01;-0.20;89.70
6627;DHT22;3349;49.830;8.748;2023-03-12T03:39:27;-0.30;89.20
6627;DHT22;3349;49.830;8.748;2023-03-12T03:41:54;-0.30;89.00
6627;DHT22;3349;49.830;8.748;2023-03-12T03:44:21;-0.20;89.00
6627;DHT22;3349;49.830;8.748;2023-03-12T03:46:48;-0.20;89.40
6627;DHT22;3349;49.830;8.748;2023-03-12T03:49:15;-0.20;90.00
6627;DHT22;3349;49.830;8.748;2023-03-12T03:51:43;-0.30;89.80
6627;DHT22;3349;49.830;8.748;2023-03-12T03:54:10;-0.20;90.10
6627;DHT22;3349;49.830;8.748;2023-03-12T03:56:38;-0.20;90.10
6627;DHT22;3349;49.830;8.748;2023-03-12T03:59:05;-0.20;89.40
6627;DHT22;3349;49.830;8.748;2023-03-12T04:01:32;-0.20;88.80
6627;DHT22;3349;49.830;8.748;2023-03-12T04:03:59;-0.20;89.20
6627;DHT22;3349;49.830;8.748;2023-03-12T04:06:25;-0.20;89.20
6627;DHT22;3349;49.830;8.748;2023-03-12T04:08:55;-0.30;89.20
6627;DHT22;3349;49.830;8.748;2023-03-12T04:11:22;-0.20;90.00
6627;DHT22;3349;49.830;8.748;2023-03-12T04:13:49;-0.10;90.20
6627;DHT22;3349;49.830;8.748;2023-03-12T04:16:16;-0.10;90.40
6627;DHT22;3349;49.830;8.748;2023-03-12T04:18:43;-0.10;90.20
6627;DHT22;3349;49.830;8.748;2023-03-12T04:21:11;-0.10;90.00
6627;DHT22;3349;49.830;8.748;2023-03-12T04:23:38;0.00;90.00
6627;DHT22;3349;49.830;8.748;2023-03-12T04:26:06;0.00;89.70
6627;DHT22;3349;49.830;8.748;2023-03-12T04:28:33;0.00;89.90
6627;DHT22;3349;49.830;8.748;2023-03-12T04:31:03;0.10;89.90
6627;DHT22;3349;49.830;8.748;2023-03-12T04:33:32;0.20;90.00
6627;DHT22;3349;49.830;8.748;2023-03-12T04:36:00;0.30;89.00
6627;DHT22;3349;49.830;8.748;2023-03-12T04:38:27;0.30;87.50
6627;DHT22;3349;49.830;8.748;2023-03-12T04:40:57;0.30;87.60
6627;DHT22;3349;49.830;8.748;2023-03-12T04:43:26;0.40;87.60
6627;DHT22;3349;49.830;8.748;2023-03-12T04:45:53;0.30;86.70
6627;DHT22;3349;49.830;8.748;2023-03-12T04:48:20;0.40;86.60
6627;DHT22;3349;49.830;8.748;2023-03-12T04:50:47;0.40;86.20
6627;DHT22;3349;49.830;8.748;2023-03-12T04:53:14;0.40;85.90
6627;DHT22;3349;49.830;8.748;2023-03-12T04:55:41;0.50;85.50
6627;DHT22;3349;49.830;8.748;2023-03-12T04:58:08;0.50;85.00
6627;DHT22;3349;49.830;8.748;2023-03-12T05:00:37;0.50;84.70
6627;DHT22;3349;49.830;8.748;2023-03-12T05:03:04;0.50;84.70
6627;DHT22;3349;49.830;8.748;2023-03-12T05:05:30;0.50;84.50
6627;DHT22;3349;49.830;8.748;2023-03-12T05:07:57;0.50;84.70
6627;DHT22;3349;49.830;8.748;2023-03-12T05:10:24;0.50;84.30
6627;DHT22;3349;49.830;8.748;2023-03-12T05:12:51;0.50;84.40
6627;DHT22;3349;49.830;8.748;2023-03-12T05:15:18;0.60;85.00
6627;DHT22;3349;49.830;8.748;2023-03-12T05:17:46;0.60;84.50
6627;DHT22;3349;49.830;8.748;2023-03-12T05:20:12;0.70;84.00
6627;DHT22;3349;49.830;8.748;2023-03-12T05:22:39;0.70;84.00
6627;DHT22;3349;49.830;8.748;2023-03-12T05:25:06;0.70;83.70
6627;DHT22;3349;49.830;8.748;2023-03-12T05:27:34;0.70;83.70
6627;DHT22;3349;49.830;8.748;2023-03-12T05:30:01;0.70;83.50
6627;DHT22;3349;49.830;8.748;2023-03-12T05:32:28;0.70;83.70
6627;DHT22;3349;49.830;8.748;2023-03-12T05:34:56;0.80;83.80
6627;DHT22;3349;49.830;8.748;2023-03-12T05:37:23;0.80;83.80
6627;DHT22;3349;49.830;8.748;2023-03-12T05:39:50;0.80;83.80
6627;DHT22;3349;49.830;8.748;2023-03-12T05:42:18;0.80;83.80
6627;DHT22;3349;49.830;8.748;2023-03-12T05:44:45;0.80;83.30
6627;DHT22;3349;49.830;8.748;2023-03-12T05:47:12;0.80;83.60
6627;DHT22;3349;49.830;8.748;2023-03-12T05:49:39;0.80;84.10
6627;DHT22;3349;49.830;8.748;2023-03-12T05:52:07;0.80;79.60
6627;DHT22;3349;49.830;8.748;2023-03-12T05:54:34;0.90;78.50
6627;DHT22;3349;49.830;8.748;2023-03-12T05:57:02;1.00;79.20
6627;DHT22;3349;49.830;8.748;2023-03-12T05:59:28;1.10;79.40
6627;DHT22;3349;49.830;8.748;2023-03-12T06:01:55;1.10;78.90
6627;DHT22;3349;49.830;8.748;2023-03-12T06:04:22;1.10;79.30
6627;DHT22;3349;49.830;8.748;2023-03-12T06:06:49;1.10;79.50
6627;DHT22;3349;49.830;8.748;2023-03-12T06:09:17;1.10;80.00
6627;DHT22;3349;49.830;8.748;2023-03-12T06:11:44;1.10;79.20
6627;DHT22;3349;49.830;8.748;2023-03-12T06:14:11;1.10;78.80
6627;DHT22;3349;49.830;8.748;2023-03-12T06:16:37;1.20;79.20
6627;DHT22;3349;49.830;8.748;2023-03-12T06:19:04;1.20;79.30
6627;DHT22;3349;49.830;8.748;2023-03-12T06:21:34;1.20;79.70
6627;DHT22;3349;49.830;8.748;2023-03-12T06:24:01;1.20;79.70
6627;DHT22;3349;49.830;8.748;2023-03-12T06:26:29;1.20;80.00
6627;DHT22;3349;49.830;8.748;2023-03-12T06:28:56;1.20;79.30
6627;DHT22;3349;49.830;8.748;2023-03-12T06:31:23;1.30;79.50
6627;DHT22;3349;49.830;8.748;2023-03-12T06:33:50;1.30;79.50
6627;DHT22;3349;49.830;8.748;2023-03-12T06:36:18;1.30;79.30
6627;DHT22;3349;49.830;8.748;2023-03-12T06:38:45;1.40;79.00
6627;DHT22;3349;49.830;8.748;2023-03-12T06:41:14;1.40;78.90
6627;DHT22;3349;49.830;8.748;2023-03-12T06:43:43;1.50;78.50
6627;DHT22;3349;49.830;8.748;2023-03-12T06:46:12;1.50;79.00
6627;DHT22;3349;49.830;8.748;2023-03-12T06:48:39;1.60;78.70
6627;DHT22;3349;49.830;8.748;2023-03-12T06:51:07;1.60;77.50
6627;DHT22;3349;49.830;8.748;2023-03-12T06:53:34;1.60;77.80
6627;DHT22;3349;49.830;8.748;2023-03-12T06:56:01;1.60;78.00
6627;DHT22;3349;49.830;8.748;2023-03-12T06:58:28;1.70;78.70
6627;DHT22;3349;49.830;8.748;2023-03-12T07:00:56;1.70;77.90
6627;DHT22;3349;49.830;8.748;2023-03-12T07:03:23;1.80;78.00
6627;DHT22;3349;49.830;8.748;2023-03-12T07:05:50;1.80;78.30
6627;DHT22;3349;49.830;8.748;2023-03-12T07:08:17;1.90;78.70
6627;DHT22;3349;49.830;8.748;2023-03-12T07:10:44;2.00;79.20
6627;DHT22;3349;49.830;8.748;2023-03-12T07:13:11;2.10;80.50
6627;DHT22;3349;49.830;8.748;2023-03-12T07:15:38;2.10;79.00
6627;DHT22;3349;49.830;8.748;2023-03-12T07:18:08;2.30;79.10
6627;DHT22;3349;49.830;8.748;2023-03-12T07:20:36;2.50;79.80
6627;DHT22;3349;49.830;8.748;2023-03-12T07:23:03;2.60;79.20
6627;DHT22;3349;49.830;8.748;2023-03-12T07:25:30;2.60;78.30
6627;DHT22;3349;49.830;8.748;2023-03-12T07:27:57;2.70;78.50
6627;DHT22;3349;49.830;8.748;2023-03-12T07:30:24;2.80;79.10
6627;DHT22;3349;49.830;8.748;2023-03-12T07:32:51;2.80;80.50
6627;DHT22;3349;49.830;8.748;2023-03-12T07:35:19;2.90;81.60
6627;DHT22;3349;49.830;8.748;2023-03-12T07:37:45;3.00;81.60
6627;DHT22;3349;49.830;8.748;2023-03-12T07:40:12;3.10;84.20
6627;DHT22;3349;49.830;8.748;2023-03-12T07:42:39;3.10;84.80
6627;DHT22;3349;49.830;8.748;2023-03-12T07:45:06;3.00;87.90
6627;DHT22;3349;49.830;8.748;2023-03-12T07:47:33;3.10;89.10
6627;DHT22;3349;49.830;8.748;2023-03-12T07:50:00;3.00;90.50
6627;DHT22;3349;49.830;8.748;2023-03-12T07:52:28;3.00;90.80
6627;DHT22;3349;49.830;8.748;2023-03-12T07:54:55;2.90;91.40
6627;DHT22;3349;49.830;8.748;2023-03-12T07:57:23;2.90;92.20
6627;DHT22;3349;49.830;8.748;2023-03-12T07:59:50;2.90;93.10
6627;DHT22;3349;49.830;8.748;2023-03-12T08:02:16;2.90;95.50
6627;DHT22;3349;49.830;8.748;2023-03-12T08:04:44;3.00;96.30
6627;DHT22;3349;49.830;8.748;2023-03-12T08:07:11;3.10;97.20
6627;DHT22;3349;49.830;8.748;2023-03-12T08:09:39;3.10;97.40
6627;DHT22;3349;49.830;8.748;2023-03-12T08:12:07;3.20;98.30
6627;DHT22;3349;49.830;8.748;2023-03-12T08:14:34;3.30;99.10
6627;DHT22;3349;49.830;8.748;2023-03-12T08:17:01;3.30;99.20
6627;DHT22;3349;49.830;8.748;2023-03-12T08:19:27;3.40;99.60
6627;DHT22;3349;49.830;8.748;2023-03-12T08:21:55;3.30;99.20
6627;DHT22;3349;49.830;8.748;2023-03-12T08:24:22;3.30;99.30
6627;DHT22;3349;49.830;8.748;2023-03-12T08:26:50;3.20;99.30
6627;DHT22;3349;49.830;8.748;2023-03-12T08:29:17;3.20;99.90
6627;DHT22;3349;49.830;8.748;2023-03-12T08:31:44;3.30;99.90
6627;DHT22;3349;49.830;8.748;2023-03-12T08:34:11;3.20;99.90
6627;DHT22;3349;49.830;8.748;2023-03-12T08:36:38;3.20;99.90
6627;DHT22;3349;49.830;8.748;2023-03-12T08:39:05;3.30;99.90
6627;DHT22;3349;49.830;8.748;2023-03-12T08:41:32;3.30;99.90
6627;DHT22;3349;49.830;8.748;2023-03-12T08:44:00;3.30;99.90
6627;DHT22;3349;49.830;8.748;2023-03-12T08:46:27;3.40;99.90
6627;DHT22;3349;49.830;8.748;2023-03-12T08:48:54;3.40;99.90
6627;DHT22;3349;49.830;8.748;2023-03-12T08:51:20;3.50;99.90
6627;DHT22;3349;49.830;8.748;2023-03-12T08:53:47;3.50;99.90
6627;DHT22;3349;49.830;8.748;2023-03-12T08:56:14;3.60;99.90
6627;DHT22;3349;49.830;8.748;2023-03-12T08:58:40;3.70;99.90
6627;DHT22;3349;49.830;8.748;2023-03-12T09:01:09;3.70;99.90
6627;DHT22;3349;49.830;8.748;2023-03-12T09:03:37;3.70;99.90
6627;DHT22;3349;49.830;8.748;2023-03-12T09:06:06;3.80;99.90
6627;DHT22;3349;49.830;8.748;2023-03-12T09:08:37;3.90;99.90
6627;DHT22;3349;49.830;8.748;2023-03-12T09:11:04;3.90;99.90
6627;DHT22;3349;49.830;8.748;2023-03-12T09:13:31;3.90;99.90
6627;DHT22;3349;49.830;8.748;2023-03-12T09:15:59;3.90;99.90
6627;DHT22;3349;49.830;8.748;2023-03-12T09:18:28;4.00;99.90
6627;DHT22;3349;49.830;8.748;2023-03-12T09:20:55;4.00;99.90
6627;DHT22;3349;49.830;8.748;2023-03-12T09:23:22;4.10;99.90
6627;DHT22;3349;49.830;8.748;2023-03-12T09:25:50;4.10;99.90
6627;DHT22;3349;49.830;8.748;2023-03-12T09:28:17;4.10;99.90
6627;DHT22;3349;49.830;8.748;2023-03-12T09:30:44;4.10;99.90
6627;DHT22;3349;49.830;8.748;2023-03-12T09:33:11;4.30;99.90
6627;DHT22;3349;49.830;8.748;2023-03-12T09:35:41;4.40;99.90
6627;DHT22;3349;49.830;8.748;2023-03-12T09:38:12;4.40;99.90
6627;DHT22;3349;49.830;8.748;2023-03-12T09:40:42;4.40;99.90
6627;DHT22;3349;49.830;8.748;2023-03-12T09:43:15;4.40;99.90
6627;DHT22;3349;49.830;8.748;2023-03-12T09:45:44;4.40;99.90
6627;DHT22;3349;49.830;8.748;2023-03-12T09:48:14;4.50;99.90
6627;DHT22;3349;49.830;8.748;2023-03-12T09:50:46;4.60;99.90
6627;DHT22;3349;49.830;8.748;2023-03-12T09:53:23;4.80;99.90
6627;DHT22;3349;49.830;8.748;2023-03-12T09:55:54;4.90;99.90
6627;DHT22;3349;49.830;8.748;2023-03-12T09:58:25;5.00;99.90
6627;DHT22;3349;49.830;8.748;2023-03-12T10:00:56;5.10;99.90
6627;DHT22;3349;49.830;8.748;2023-03-12T10:03:40;5.20;99.90
6627;DHT22;3349;49.830;8.748;2023-03-12T10:06:15;5.20;99.90
6627;DHT22;3349;49.830;8.748;2023-03-12T10:08:53;5.20;99.90
6627;DHT22;3349;49.830;8.748;2023-03-12T10:11:31;5.20;99.90
6627;DHT22;3349;49.830;8.748;2023-03-12T10:14:12;5.30;99.90
6627;DHT22;3349;49.830;8.748;2023-03-12T10:16:51;5.30;99.90
6627;DHT22;3349;49.830;8.748;2023-03-12T10:19:37;5.40;99.90
6627;DHT22;3349;49.830;8.748;2023-03-12T10:22:15;5.40;99.90
6627;DHT22;3349;49.830;8.748;2023-03-12T10:24:53;5.40;99.90
6627;DHT22;3349;49.830;8.748;2023-03-12T10:27:24;5.50;99.90
6627;DHT22;3349;49.830;8.748;2023-03-12T10:29:54;5.60;99.90
6627;DHT22;3349;49.830;8.748;2023-03-12T10:32:26;5.60;99.90
6627;DHT22;3349;49.830;8.748;2023-03-12T10:34:57;5.60;99.90
6627;DHT22;3349;49.830;8.748;2023-03-12T10:37:29;5.70;99.90
6627;DHT22;3349;49.830;8.748;2023-03-12T10:39:57;5.80;99.90
6627;DHT22;3349;49.830;8.748;2023-03-12T10:42:26;6.00;99.90
6627;DHT22;3349;49.830;8.748;2023-03-12T10:44:57;6.20;99.90
6627;DHT22;3349;49.830;8.748;2023-03-12T10:47:31;6.20;99.10
6627;DHT22;3349;49.830;8.748;2023-03-12T10:50:12;6.30;99.00
6627;DHT22;3349;49.830;8.748;2023-03-12T10:52:41;6.50;98.80
6627;DHT22;3349;49.830;8.748;2023-03-12T10:55:19;6.60;97.20
6627;DHT22;3349;49.830;8.748;2023-03-12T10:57:47;6.70;98.00
6627;DHT22;3349;49.830;8.748;2023-03-12T11:00:18;6.70;96.40
6627;DHT22;3349;49.830;8.748;2023-03-12T11:02:46;7.00;96.50
6627;DHT22;3349;49.830;8.748;2023-03-12T11:05:20;7.20;95.50
6627;DHT22;3349;49.830;8.748;2023-03-12T11:07:49;7.30;93.70
6627;DHT22;3349;49.830;8.748;2023-03-12T11:10:20;7.20;94.00
6627;DHT22;3349;49.830;8.748;2023-03-12T11:13:00;7.10;94.80
6627;DHT22;3349;49.830;8.748;2023-03-12T11:15:29;7.10;95.50
6627;DHT22;3349;49.830;8.748;2023-03-12T11:21:16;7.40;96.90
6627;DHT22;3349;49.830;8.748;2023-03-12T11:23:52;7.90;94.70
6627;DHT22;3349;49.830;8.748;2023-03-12T11:26:31;8.20;91.70
6627;DHT22;3349;49.830;8.748;2023-03-12T11:29:02;8.30;90.80
6627;DHT22;3349;49.830;8.748;2023-03-12T11:31:32;8.30;89.60
6627;DHT22;3349;49.830;8.748;2023-03-12T11:34:03;8.20;89.60
6627;DHT22;3349;49.830;8.748;2023-03-12T11:36:40;8.30;89.80
6627;DHT22;3349;49.830;8.748;2023-03-12T11:39:17;8.30;90.50
6627;DHT22;3349;49.830;8.748;2023-03-12T11:42:10;8.30;90.30
6627;DHT22;3349;49.830;8.748;2023-03-12T11:44:47;8.60;89.40
6627;DHT22;3349;49.830;8.748;2023-03-12T11:47:31;8.70;88.40
6627;DHT22;3349;49.830;8.748;2023-03-12T11:50:11;8.50;90.40
6627;DHT22;3349;49.830;8.748;2023-03-12T11:52:47;8.70;91.80
6627;DHT22;3349;49.830;8.748;2023-03-12T11:55:40;9.10;91.20
6627;DHT22;3349;49.830;8.748;2023-03-12T11:58:23;9.10;87.80
6627;DHT22;3349;49.830;8.748;2023-03-12T12:00:56;9.10;90.00
6627;DHT22;3349;49.830;8.748;2023-03-12T12:03:43;9.00;87.30
6627;DHT22;3349;49.830;8.748;2023-03-12T12:06:16;9.00;89.50
6627;DHT22;3349;49.830;8.748;2023-03-12T12:09:02;9.20;89.60
6627;DHT22;3349;49.830;8.748;2023-03-12T12:11:41;8.80;90.60
6627;DHT22;3349;49.830;8.748;2023-03-12T12:14:17;8.90;90.80
6627;DHT22;3349;49.830;8.748;2023-03-12T12:16:57;9.00;90.40
6627;DHT22;3349;49.830;8.748;2023-03-12T12:19:35;8.90;90.60
6627;DHT22;3349;49.830;8.748;2023-03-12T12:22:18;8.90;90.00
6627;DHT22;3349;49.830;8.748;2023-03-12T12:25:09;9.00;90.30
6627;DHT22;3349;49.830;8.748;2023-03-12T12:27:44;9.10;89.30
6627;DHT22;3349;49.830;8.748;2023-03-12T12:30:18;9.00;87.30
6627;DHT22;3349;49.830;8.748;2023-03-12T12:32:59;9.10;89.00
6627;DHT22;3349;49.830;8.748;2023-03-12T12:35:33;9.10;90.30
6627;DHT22;3349;49.830;8.748;2023-03-12T12:38:03;9.10;88.10
6627;DHT22;3349;49.830;8.748;2023-03-12T12:40:33;9.00;87.50
6627;DHT22;3349;49.830;8.748;2023-03-12T12:43:20;9.10;88.20
6627;DHT22;3349;49.830;8.748;2023-03-12T12:45:49;9.20;88.70
6627;DHT22;3349;49.830;8.748;2023-03-12T12:48:19;9.30;88.50
6627;DHT22;3349;49.830;8.748;2023-03-12T12:50:47;9.40;86.80
6627;DHT22;3349;49.830;8.748;2023-03-12T12:53:20;9.60;87.10
6627;DHT22;3349;49.830;8.748;2023-03-12T12:55:59;9.80;84.80
6627;DHT22;3349;49.830;8.748;2023-03-12T12:58:50;10.20;81.90
6627;DHT22;3349;49.830;8.748;2023-03-12T13:01:18;10.40;79.20
6627;DHT22;3349;49.830;8.748;2023-03-12T13:03:46;10.30;78.60
6627;DHT22;3349;49.830;8.748;2023-03-12T13:06:13;10.30;79.20
6627;DHT22;3349;49.830;8.748;2023-03-12T13:09:13;10.10;79.00
6627;DHT22;3349;49.830;8.748;2023-03-12T13:11:44;10.20;80.00
6627;DHT22;3349;49.830;8.748;2023-03-12T13:14:19;10.30;79.40
6627;DHT22;3349;49.830;8.748;2023-03-12T13:16:47;10.20;80.20
6627;DHT22;3349;49.830;8.748;2023-03-12T13:19:24;10.20;80.90
6627;DHT22;3349;49.830;8.748;2023-03-12T13:21:59;10.30;81.90
6627;DHT22;3349;49.830;8.748;2023-03-12T13:24:30;10.40;81.40
6627;DHT22;3349;49.830;8.748;2023-03-12T13:27:03;10.60;79.30
6627;DHT22;3349;49.830;8.748;2023-03-12T13:29:38;10.60;79.00
6627;DHT22;3349;49.830;8.748;2023-03-12T13:32:08;10.40;79.80
6627;DHT22;3349;49.830;8.748;2023-03-12T13:34:44;10.40;80.30
6627;DHT22;3349;49.830;8.748;2023-03-12T13:37:27;10.30;80.70
6627;DHT22;3349;49.830;8.748;2023-03-12T13:39:56;10.30;83.10
6627;DHT22;3349;49.830;8.748;2023-03-12T13:42:37;10.40;82.20
6627;DHT22;3349;49.830;8.748;2023-03-12T13:45:25;10.40;80.50
6627;DHT22;3349;49.830;8.748;2023-03-12T13:47:56;10.40;80.80
6627;DHT22;3349;49.830;8.748;2023-03-12T13:50:25;10.40;80.20
6627;DHT22;3349;49.830;8.748;2023-03-12T13:53:03;10.30;82.10
6627;DHT22;3349;49.830;8.748;2023-03-12T13:55:32;10.20;82.20
6627;DHT22;3349;49.830;8.748;2023-03-12T13:58:05;10.20;82.20
6627;DHT22;3349;49.830;8.748;2023-03-12T14:00:39;10.20;81.60
6627;DHT22;3349;49.830;8.748;2023-03-12T14:03:13;10.20;82.20
6627;DHT22;3349;49.830;8.748;2023-03-12T14:05:49;10.10;82.90
6627;DHT22;3349;49.830;8.748;2023-03-12T14:08:46;10.10;85.20
6627;DHT22;3349;49.830;8.748;2023-03-12T14:11:45;10.30;83.10
6627;DHT22;3349;49.830;8.748;2023-03-12T14:17:14;10.50;80.50
6627;DHT22;3349;49.830;8.748;2023-03-12T14:19:45;10.50;79.70
6627;DHT22;3349;49.830;8.748;2023-03-12T14:22:12;10.50;79.70
6627;DHT22;3349;49.830;8.748;2023-03-12T14:24:46;10.40;79.40
6627;DHT22;3349;49.830;8.748;2023-03-12T14:27:17;10.40;79.90
6627;DHT22;3349;49.830;8.748;2023-03-12T14:29:48;10.30;81.20
6627;DHT22;3349;49.830;8.748;2023-03-12T14:32:19;10.20;80.90
6627;DHT22;3349;49.830;8.748;2023-03-12T14:34:51;10.20;81.90
6627;DHT22;3349;49.830;8.748;2023-03-12T14:37:22;10.20;82.50
6627;DHT22;3349;49.830;8.748;2023-03-12T14:39:50;10.20;82.60
6627;DHT22;3349;49.830;8.748;2023-03-12T14:42:21;10.20;82.90
6627;DHT22;3349;49.830;8.748;2023-03-12T14:44:57;10.20;83.00
6627;DHT22;3349;49.830;8.748;2023-03-12T14:47:26;10.20;83.20
6627;DHT22;3349;49.830;8.748;2023-03-12T14:49:55;10.30;83.40
6627;DHT22;3349;49.830;8.748;2023-03-12T14:52:23;10.30;83.30
6627;DHT22;3349;49.830;8.748;2023-03-12T14:54:55;10.40;83.20
6627;DHT22;3349;49.830;8.748;2023-03-12T14:57:22;10.40;81.70
6627;DHT22;3349;49.830;8.748;2023-03-12T14:59:53;10.60;79.00
6627;DHT22;3349;49.830;8.748;2023-03-12T15:02:21;10.80;78.80
6627;DHT22;3349;49.830;8.748;2023-03-12T15:04:51;10.90;77.30
6627;DHT22;3349;49.830;8.748;2023-03-12T15:07:22;10.90;76.80
6627;DHT22;3349;49.830;8.748;2023-03-12T15:09:52;11.00;75.00
6627;DHT22;3349;49.830;8.748;2023-03-12T15:12:21;11.00;75.30
6627;DHT22;3349;49.830;8.748;2023-03-12T15:14:53;11.00;75.00
6627;DHT22;3349;49.830;8.748;2023-03-12T15:17:23;11.10;74.00
6627;DHT22;3349;49.830;8.748;2023-03-12T15:19:52;11.10;73.50
6627;DHT22;3349;49.830;8.748;2023-03-12T15:22:23;11.10;72.70
6627;DHT22;3349;49.830;8.748;2023-03-12T15:24:52;11.10;72.00
6627;DHT22;3349;49.830;8.748;2023-03-12T15:27:21;11.10;71.40
6627;DHT22;3349;49.830;8.748;2023-03-12T15:29:57;11.10;71.80
6627;DHT22;3349;49.830;8.748;2023-03-12T15:32:25;11.10;72.90
6627;DHT22;3349;49.830;8.748;2023-03-12T15:34:55;11.00;72.80
6627;DHT22;3349;49.830;8.748;2023-03-12T15:37:23;11.00;72.80
6627;DHT22;3349;49.830;8.748;2023-03-12T15:39:54;11.00;72.90
6627;DHT22;3349;49.830;8.748;2023-03-12T15:42:23;11.10;73.50
6627;DHT22;3349;49.830;8.748;2023-03-12T15:44:52;11.00;73.10
6627;DHT22;3349;49.830;8.748;2023-03-12T15:47:21;11.10;72.80
6627;DHT22;3349;49.830;8.748;2023-03-12T15:49:50;11.10;72.30
6627;DHT22;3349;49.830;8.748;2023-03-12T15:52:29;11.10;72.40
6627;DHT22;3349;49.830;8.748;2023-03-12T15:55:06;11.10;71.70
6627;DHT22;3349;49.830;8.748;2023-03-12T15:57:45;11.00;72.20
6627;DHT22;3349;49.830;8.748;2023-03-12T16:00:19;11.00;72.00
6627;DHT22;3349;49.830;8.748;2023-03-12T16:02:49;10.90;72.50
6627;DHT22;3349;49.830;8.748;2023-03-12T16:05:16;10.90;72.40
6627;DHT22;3349;49.830;8.748;2023-03-12T16:07:45;11.00;72.30
6627;DHT22;3349;49.830;8.748;2023-03-12T16:10:13;10.90;72.90
6627;DHT22;3349;49.830;8.748;2023-03-12T16:12:40;11.00;72.40
6627;DHT22;3349;49.830;8.748;2023-03-12T16:15:12;11.00;72.40
6627;DHT22;3349;49.830;8.748;2023-03-12T16:17:40;11.00;71.80
6627;DHT22;3349;49.830;8.748;2023-03-12T16:20:13;10.90;71.40
6627;DHT22;3349;49.830;8.748;2023-03-12T16:22:42;11.00;71.30
6627;DHT22;3349;49.830;8.748;2023-03-12T16:25:10;10.90;71.60
6627;DHT22;3349;49.830;8.748;2023-03-12T16:27:40;10.90;71.70
6627;DHT22;3349;49.830;8.748;2023-03-12T16:30:13;10.90;71.30
6627;DHT22;3349;49.830;8.748;2023-03-12T16:32:40;10.90;71.30
6627;DHT22;3349;49.830;8.748;2023-03-12T16:35:11;10.90;71.70
6627;DHT22;3349;49.830;8.748;2023-03-12T16:37:39;10.90;71.60